Terminal Aerodrome Forecast
Issued by NWS Upton, NY

Home | Current Version | Previous Version | Text Only | Print | Product List | Glossary On
Versions: 1 2 3 4 5 6 7 8 9 10 11 12 13 14 15 16 17 18 19 20 21 22 23 24 25 26
897
FTUS41 KOKX 080531
TAFISP
TAF
KISP 080531Z 0806/0906 04018KT P6SM SCT015 OVC080
     FM080900 04022KT 5SM -SN BR OVC015
     FM081100 02022KT 1SM -SN OVC007
     FM081300 01020G28KT 1/2SM SN FG BKN004
     FM081900 02015G23KT 1 1/2SM -SN BR OVC007
     FM082300 02008KT P6SM OVC015
     FM090300 03007KT P6SM OVC025=

USA.gov is the U.S. government's official web portal to all federal, state and local government web resources and services.